createdAt,value
2022-08-27T00:02:18.106Z,95691.00
2022-08-27T00:04:47.785Z,95685.00
2022-08-27T00:07:16.843Z,95691.00
2022-08-27T00:09:44.742Z,95679.00
2022-08-27T00:12:12.829Z,95686.00
2022-08-27T00:14:40.626Z,95681.00
2022-08-27T00:17:08.542Z,95677.00
2022-08-27T00:19:37.406Z,95676.00
2022-08-27T00:22:07.056Z,95672.00
2022-08-27T00:24:35.742Z,95670.00
2022-08-27T00:27:06.590Z,95673.00
2022-08-27T00:29:34.314Z,95671.00
2022-08-27T00:32:03.619Z,95671.00
2022-08-27T00:34:34.212Z,95670.00
2022-08-27T00:37:03.903Z,95675.00
2022-08-27T00:39:31.873Z,95666.00
2022-08-27T00:42:01.456Z,95666.00
2022-08-27T00:44:32.459Z,95659.00
2022-08-27T00:47:06.465Z,95664.00
2022-08-27T00:49:52.175Z,95674.00
2022-08-27T00:52:38.805Z,95668.00
2022-08-27T00:55:18.653Z,95661.00
2022-08-27T00:57:54.521Z,95659.00
2022-08-27T01:00:23.126Z,95662.00
2022-08-27T01:02:50.778Z,95664.00
2022-08-27T01:05:23.652Z,95657.00
2022-08-27T01:07:55.069Z,95657.00
2022-08-27T01:10:25.851Z,95656.00
2022-08-27T01:12:55.305Z,95654.00
2022-08-27T01:15:27.343Z,95646.00
2022-08-27T01:17:59.542Z,95656.00
2022-08-27T01:20:43.498Z,95658.00
2022-08-27T01:23:38.205Z,95670.00
2022-08-27T01:26:08.797Z,95671.00
2022-08-27T01:28:37.919Z,95666.00
2022-08-27T01:31:11.569Z,95670.00
2022-08-27T01:33:40.310Z,95666.00
2022-08-27T01:36:08.535Z,95666.00
2022-08-27T01:38:35.909Z,95677.00
2022-08-27T01:41:05.749Z,95673.00
2022-08-27T01:43:34.276Z,95671.00
2022-08-27T01:46:01.987Z,95666.00
2022-08-27T01:48:30.392Z,95668.00
2022-08-27T01:50:57.843Z,95667.00
2022-08-27T01:53:27.243Z,95665.00
2022-08-27T01:55:56.703Z,95666.00
2022-08-27T01:58:29.232Z,95669.00
2022-08-27T02:01:06.068Z,95669.00
2022-08-27T02:03:37.282Z,95673.00
2022-08-27T02:06:09.655Z,95665.00
2022-08-27T02:08:37.756Z,95678.00
2022-08-27T02:11:08.660Z,95667.00
2022-08-27T02:13:36.523Z,95664.00
2022-08-27T02:16:04.467Z,95662.00
2022-08-27T02:18:31.900Z,95666.00
2022-08-27T02:21:02.514Z,95662.00
2022-08-27T02:23:30.119Z,95651.00
2022-08-27T02:25:57.781Z,95651.00
2022-08-27T02:28:25.409Z,95648.00
2022-08-27T02:30:52.698Z,95637.00
2022-08-27T02:33:19.852Z,95649.00
2022-08-27T02:35:47.650Z,95635.00
2022-08-27T02:38:15.053Z,95648.00
2022-08-27T02:40:42.531Z,95649.00
2022-08-27T02:43:15.600Z,95648.00
2022-08-27T02:45:44.477Z,95644.00
2022-08-27T02:48:12.442Z,95640.00
2022-08-27T02:50:40.068Z,95647.00
2022-08-27T02:53:08.198Z,95645.00
2022-08-27T02:55:37.140Z,95639.00
2022-08-27T02:58:05.474Z,95641.00
2022-08-27T03:00:32.816Z,95637.00
2022-08-27T03:03:02.004Z,95636.00
2022-08-27T03:05:30.601Z,95632.00
2022-08-27T03:08:00.134Z,95634.00
2022-08-27T03:10:27.464Z,95629.00
2022-08-27T03:12:55.006Z,95635.00
2022-08-27T03:15:23.005Z,95635.00
2022-08-27T03:18:09.769Z,95633.00
2022-08-27T03:20:44.602Z,95625.00
2022-08-27T03:23:12.787Z,95634.00
2022-08-27T03:25:44.238Z,95615.00
2022-08-27T03:28:22.543Z,95634.00
2022-08-27T03:30:54.416Z,95623.00
2022-08-27T03:33:22.762Z,95627.00
2022-08-27T03:35:52.245Z,95631.00
2022-08-27T03:38:22.829Z,95631.00
2022-08-27T03:40:51.956Z,95624.00
2022-08-27T03:43:22.460Z,95630.00
2022-08-27T03:46:01.721Z,95637.00
2022-08-27T03:48:34.989Z,95623.00
2022-08-27T03:51:10.980Z,95628.00
2022-08-27T03:53:40.924Z,95621.00
2022-08-27T03:56:08.866Z,95608.00
2022-08-27T03:58:38.977Z,95619.00
2022-08-27T04:01:08.308Z,95610.00
2022-08-27T04:03:38.025Z,95609.00
2022-08-27T04:06:06.152Z,95602.00
2022-08-27T04:08:34.205Z,95607.00
2022-08-27T04:11:05.844Z,95605.00
2022-08-27T04:13:34.586Z,95607.00
2022-08-27T04:16:02.428Z,95602.00
2022-08-27T04:18:29.769Z,95605.00
2022-08-27T04:20:58.339Z,95604.00
2022-08-27T04:23:25.710Z,95605.00
2022-08-27T04:25:53.105Z,95605.00
2022-08-27T04:28:21.729Z,95608.00
2022-08-27T04:30:49.903Z,95606.00
2022-08-27T04:33:17.924Z,95595.00
2022-08-27T04:35:45.495Z,95601.00
2022-08-27T04:38:13.030Z,95615.00
2022-08-27T04:40:59.393Z,95610.00
2022-08-27T04:43:28.942Z,95613.00
2022-08-27T04:45:56.815Z,95620.00
2022-08-27T04:48:25.889Z,95614.00
2022-08-27T04:50:53.503Z,95619.00
2022-08-27T04:53:20.915Z,95626.00
2022-08-27T04:55:53.757Z,95632.00
2022-08-27T04:58:23.399Z,95638.00
2022-08-27T05:00:55.143Z,95630.00
2022-08-27T05:03:24.455Z,95635.00
2022-08-27T05:05:53.486Z,95627.00
2022-08-27T05:08:21.080Z,95629.00
2022-08-27T05:10:52.129Z,95636.00
2022-08-27T05:13:22.716Z,95620.00
2022-08-27T05:15:57.317Z,95639.00
2022-08-27T05:18:28.307Z,95629.00
2022-08-27T05:20:57.631Z,95631.00
2022-08-27T05:23:26.265Z,95618.00
2022-08-27T05:25:54.137Z,95630.00
2022-08-27T05:28:27.846Z,95617.00
2022-08-27T05:31:05.414Z,95623.00
2022-08-27T05:33:33.877Z,95613.00
2022-08-27T05:36:02.058Z,95622.00
2022-08-27T05:38:31.242Z,95626.00
2022-08-27T05:41:12.421Z,95618.00
2022-08-27T05:43:42.470Z,95628.00
2022-08-27T05:46:17.252Z,95629.00
2022-08-27T05:48:46.544Z,95638.00
2022-08-27T05:51:25.587Z,95632.00
2022-08-27T05:54:08.598Z,95630.00
2022-08-27T05:56:38.773Z,95624.00
2022-08-27T05:59:26.304Z,95629.00
2022-08-27T06:01:56.879Z,95638.00
2022-08-27T06:04:26.241Z,95638.00
2022-08-27T06:06:55.086Z,95634.00
2022-08-27T06:09:27.229Z,95639.00
2022-08-27T06:11:57.032Z,95634.00
2022-08-27T06:14:24.707Z,95637.00
2022-08-27T06:16:52.543Z,95636.00
2022-08-27T06:19:20.376Z,95639.00
2022-08-27T06:22:00.864Z,95628.00
2022-08-27T06:24:36.478Z,95633.00
2022-08-27T06:27:03.837Z,95631.00
2022-08-27T06:29:31.605Z,95631.00
2022-08-27T06:31:59.765Z,95624.00
2022-08-27T06:34:27.349Z,95631.00
2022-08-27T06:36:55.554Z,95630.00
2022-08-27T06:39:23.051Z,95633.00
2022-08-27T06:42:03.422Z,95629.00
2022-08-27T06:44:34.455Z,95636.00
2022-08-27T06:47:04.013Z,95630.00
2022-08-27T06:49:33.261Z,95634.00
2022-08-27T06:54:46.128Z,95641.00
2022-08-27T06:57:13.473Z,95632.00
2022-08-27T06:59:41.296Z,95637.00
2022-08-27T07:02:11.431Z,95633.00
2022-08-27T07:04:41.478Z,95630.00
2022-08-27T07:07:34.383Z,95645.00
2022-08-27T07:10:07.777Z,95637.00
2022-08-27T07:12:35.074Z,95639.00
2022-08-27T07:15:04.438Z,95646.00
2022-08-27T07:17:31.983Z,95638.00
2022-08-27T07:20:02.176Z,95644.00
2022-08-27T07:22:29.797Z,95639.00
2022-08-27T07:24:57.299Z,95648.00
2022-08-27T07:27:24.642Z,95650.00
2022-08-27T07:29:56.222Z,95648.00
2022-08-27T07:32:23.473Z,95643.00
2022-08-27T07:34:58.096Z,95645.00
2022-08-27T07:37:26.921Z,95659.00
2022-08-27T07:40:07.293Z,95653.00
2022-08-27T07:42:53.332Z,95663.00
2022-08-27T07:45:24.401Z,95664.00
2022-08-27T07:47:57.836Z,95670.00
2022-08-27T07:50:27.668Z,95670.00
2022-08-27T07:52:58.356Z,95679.00
2022-08-27T07:55:26.498Z,95672.00
2022-08-27T07:57:54.759Z,95674.00
2022-08-27T08:00:22.051Z,95686.00
2022-08-27T08:02:49.941Z,95679.00
2022-08-27T08:05:17.547Z,95674.00
2022-08-27T08:07:45.303Z,95681.00
2022-08-27T08:10:13.452Z,95682.00
2022-08-27T08:12:41.333Z,95674.00
2022-08-27T08:15:11.973Z,95683.00
2022-08-27T08:17:39.479Z,95685.00
2022-08-27T08:20:31.281Z,95684.00
2022-08-27T08:23:00.125Z,95684.00
2022-08-27T08:25:27.295Z,95686.00
2022-08-27T08:27:57.846Z,95686.00
2022-08-27T08:30:28.435Z,95692.00
2022-08-27T08:33:01.917Z,95695.00
2022-08-27T08:35:34.911Z,95695.00
2022-08-27T08:38:08.935Z,95695.00
2022-08-27T08:40:44.463Z,95701.00
2022-08-27T08:43:41.945Z,95708.00
2022-08-27T08:46:24.996Z,95700.00
2022-08-27T08:48:59.500Z,95704.00
2022-08-27T08:51:42.301Z,95698.00
2022-08-27T08:54:23.271Z,95698.00
2022-08-27T08:57:10.802Z,95705.00
2022-08-27T08:59:48.036Z,95703.00
2022-08-27T09:02:16.888Z,95701.00
2022-08-27T09:04:44.918Z,95688.00
2022-08-27T09:07:35.513Z,95695.00
2022-08-27T09:10:18.729Z,95697.00
2022-08-27T09:12:46.314Z,95696.00
2022-08-27T09:15:21.114Z,95707.00
2022-08-27T09:17:49.037Z,95703.00
2022-08-27T09:20:21.484Z,95703.00
2022-08-27T09:23:33.872Z,95700.00
2022-08-27T09:26:01.374Z,95701.00
2022-08-27T09:28:49.162Z,95703.00
2022-08-27T09:31:20.890Z,95702.00
2022-08-27T09:33:55.774Z,95708.00
2022-08-27T09:36:25.165Z,95706.00
2022-08-27T09:38:58.201Z,95702.00
2022-08-27T09:41:42.971Z,95705.00
2022-08-27T09:44:14.811Z,95702.00
2022-08-27T09:47:00.282Z,95707.00
2022-08-27T09:49:28.374Z,95709.00
2022-08-27T09:51:57.448Z,95715.00
2022-08-27T09:54:32.848Z,95694.00
2022-08-27T09:57:01.169Z,95702.00
2022-08-27T09:59:37.916Z,95700.00
2022-08-27T10:02:18.881Z,95703.00
2022-08-27T10:05:01.116Z,95698.00
2022-08-27T10:07:56.878Z,95703.00
2022-08-27T10:10:43.698Z,95696.00
2022-08-27T10:13:33.374Z,95694.00
2022-08-27T10:16:47.251Z,95692.00
2022-08-27T10:20:30.266Z,95695.00
2022-08-27T10:23:42.508Z,95696.00
2022-08-27T10:26:18.684Z,95701.00
2022-08-27T10:29:36.069Z,95696.00
2022-08-27T10:32:44.052Z,95699.00
2022-08-27T10:35:27.539Z,95701.00
2022-08-27T10:38:33.084Z,95699.00
2022-08-27T10:41:17.125Z,95699.00
2022-08-27T10:44:10.032Z,95704.00
2022-08-27T10:46:50.236Z,95699.00
2022-08-27T10:49:31.180Z,95698.00
2022-08-27T10:52:18.892Z,95699.00
2022-08-27T10:55:16.430Z,95701.00
2022-08-27T10:58:34.866Z,95697.00
2022-08-27T11:01:33.279Z,95703.00
2022-08-27T11:04:18.709Z,95693.00
2022-08-27T11:07:03.920Z,95699.00
2022-08-27T11:10:00.204Z,95692.00
2022-08-27T11:12:39.164Z,95685.00
2022-08-27T11:15:28.155Z,95698.00
2022-08-27T11:18:42.367Z,95696.00
2022-08-27T11:21:27.802Z,95698.00
2022-08-27T11:24:22.031Z,95698.00
2022-08-27T11:26:56.413Z,95702.00
2022-08-27T11:29:39.037Z,95706.00
2022-08-27T11:32:32.695Z,95706.00
2022-08-27T11:35:07.449Z,95705.00
2022-08-27T11:37:43.368Z,95723.00
2022-08-27T11:40:38.370Z,95723.00
2022-08-27T11:43:09.528Z,95726.00
2022-08-27T11:45:51.336Z,95716.00
2022-08-27T11:48:27.543Z,95725.00
2022-08-27T11:51:06.408Z,95718.00
2022-08-27T11:53:52.564Z,95735.00
2022-08-27T11:56:39.791Z,95734.00
2022-08-27T11:59:21.333Z,95736.00
2022-08-27T12:01:52.439Z,95726.00
2022-08-27T12:04:30.673Z,95724.00
2022-08-27T12:07:17.379Z,95725.00
2022-08-27T12:09:53.776Z,95709.00
2022-08-27T12:12:49.708Z,95716.00
2022-08-27T12:15:33.705Z,95728.00
2022-08-27T12:18:37.094Z,95731.00
2022-08-27T12:21:30.542Z,95729.00
2022-08-27T12:24:16.624Z,95731.00
2022-08-27T12:27:00.549Z,95735.00
2022-08-27T12:29:43.820Z,95734.00
2022-08-27T12:32:27.258Z,95728.00
2022-08-27T12:35:19.631Z,95735.00
2022-08-27T12:38:19.404Z,95729.00
2022-08-27T12:40:54.483Z,95717.00
2022-08-27T12:43:29.760Z,95725.00
2022-08-27T12:46:02.478Z,95711.00
2022-08-27T12:48:39.538Z,95708.00
2022-08-27T12:51:34.735Z,95706.00
2022-08-27T12:54:45.946Z,95714.00
2022-08-27T12:57:45.958Z,95707.00
2022-08-27T13:00:18.904Z,95707.00
2022-08-27T13:02:46.442Z,95710.00
2022-08-27T13:05:19.199Z,95704.00
2022-08-27T13:07:49.066Z,95709.00
2022-08-27T13:13:17.883Z,95697.00
2022-08-27T13:15:58.581Z,95702.00
2022-08-27T13:18:29.986Z,95707.00
2022-08-27T13:21:19.720Z,95710.00
2022-08-27T13:24:02.744Z,95708.00
2022-08-27T13:26:34.568Z,95700.00
2022-08-27T13:29:04.585Z,95706.00
2022-08-27T13:31:33.116Z,95702.00
2022-08-27T13:34:02.556Z,95699.00
2022-08-27T13:36:47.416Z,95691.00
2022-08-27T13:39:14.768Z,95692.00
2022-08-27T13:41:42.577Z,95687.00
2022-08-27T13:47:16.376Z,95692.00
2022-08-27T13:49:46.360Z,95682.00
2022-08-27T13:55:18.185Z,95680.00
2022-08-27T13:57:50.040Z,95678.00
2022-08-27T14:00:32.317Z,95672.00
2022-08-27T14:03:02.551Z,95660.00
2022-08-27T14:05:34.035Z,95666.00
2022-08-27T14:08:18.054Z,95657.00
2022-08-27T14:11:01.149Z,95655.00
2022-08-27T14:13:30.751Z,95658.00
2022-08-27T14:16:01.240Z,95657.00
2022-08-27T14:18:57.374Z,95663.00
2022-08-27T14:21:22.853Z,95664.00
2022-08-27T14:23:50.518Z,95668.00
2022-08-27T14:26:18.045Z,95661.00
2022-08-27T14:28:46.675Z,95662.00
2022-08-27T14:31:14.772Z,95664.00
2022-08-27T14:33:42.509Z,95665.00
2022-08-27T14:36:10.963Z,95654.00
2022-08-27T14:38:43.183Z,95650.00
2022-08-27T14:41:11.267Z,95652.00
2022-08-27T14:43:38.686Z,95651.00
2022-08-27T14:46:08.446Z,95654.00
2022-08-27T14:48:37.027Z,95662.00
2022-08-27T14:51:13.905Z,95654.00
2022-08-27T14:53:41.245Z,95663.00
2022-08-27T14:56:08.422Z,95660.00
2022-08-27T14:58:35.754Z,95662.00
2022-08-27T15:01:04.269Z,95670.00
2022-08-27T15:03:40.533Z,95666.00
2022-08-27T15:06:07.729Z,95675.00
2022-08-27T15:08:36.293Z,95668.00
2022-08-27T15:11:04.079Z,95667.00
2022-08-27T15:13:32.237Z,95665.00
2022-08-27T15:15:59.395Z,95667.00
2022-08-27T15:18:27.906Z,95662.00
2022-08-27T15:20:55.140Z,95664.00
2022-08-27T15:23:22.503Z,95664.00
2022-08-27T15:25:49.831Z,95658.00
2022-08-27T15:28:17.497Z,95660.00
2022-08-27T15:30:44.984Z,95655.00
2022-08-27T15:33:12.309Z,95650.00
2022-08-27T15:35:39.495Z,95650.00
2022-08-27T15:38:06.945Z,95653.00
2022-08-27T15:40:36.750Z,95652.00
2022-08-27T15:43:07.461Z,95645.00
2022-08-27T15:45:35.736Z,95659.00
2022-08-27T15:48:03.244Z,95661.00
2022-08-27T15:50:31.607Z,95662.00
2022-08-27T15:53:04.187Z,95655.00
2022-08-27T15:55:36.622Z,95650.00
2022-08-27T15:58:04.855Z,95657.00
2022-08-27T16:00:33.855Z,95645.00
2022-08-27T16:03:04.223Z,95649.00
2022-08-27T16:05:36.178Z,95655.00
2022-08-27T16:08:04.767Z,95656.00
2022-08-27T16:10:32.275Z,95656.00
2022-08-27T16:12:59.984Z,95661.00
2022-08-27T16:15:28.406Z,95661.00
2022-08-27T16:18:00.607Z,95658.00
2022-08-27T16:20:28.718Z,95658.00
2022-08-27T16:22:56.144Z,95655.00
2022-08-27T16:25:23.695Z,95655.00
2022-08-27T16:27:52.441Z,95660.00
2022-08-27T16:30:22.460Z,95654.00
2022-08-27T16:32:52.802Z,95654.00
2022-08-27T16:35:21.420Z,95659.00
2022-08-27T16:37:48.691Z,95656.00
2022-08-27T16:40:16.325Z,95658.00
2022-08-27T16:42:48.986Z,95667.00
2022-08-27T16:45:18.996Z,95659.00
2022-08-27T16:48:06.199Z,95667.00
2022-08-27T16:50:34.857Z,95664.00
2022-08-27T16:53:15.208Z,95663.00
2022-08-27T16:56:02.087Z,95681.00
2022-08-27T16:58:31.644Z,95678.00
2022-08-27T17:01:05.395Z,95686.00
2022-08-27T17:04:07.689Z,95682.00
2022-08-27T17:06:32.708Z,95683.00
2022-08-27T17:08:59.854Z,95680.00
2022-08-27T17:11:29.340Z,95689.00
2022-08-27T17:14:00.082Z,95691.00
2022-08-27T17:16:33.655Z,95692.00
2022-08-27T17:19:05.002Z,95697.00
2022-08-27T17:21:34.860Z,95695.00
2022-08-27T17:24:02.778Z,95701.00
2022-08-27T17:26:35.020Z,95706.00
2022-08-27T17:29:02.504Z,95704.00
2022-08-27T17:31:38.624Z,95696.00
2022-08-27T17:34:14.802Z,95704.00
2022-08-27T17:36:44.298Z,95700.00
2022-08-27T17:39:13.608Z,95698.00
2022-08-27T17:41:47.994Z,95700.00
2022-08-27T17:44:35.767Z,95683.00
2022-08-27T17:47:08.464Z,95692.00
2022-08-27T17:49:36.987Z,95691.00
2022-08-27T17:52:12.489Z,95693.00
2022-08-27T17:54:48.890Z,95690.00
2022-08-27T17:57:25.835Z,95692.00
2022-08-27T17:59:54.510Z,95691.00
2022-08-27T18:02:33.302Z,95687.00
2022-08-27T18:05:01.022Z,95681.00
2022-08-27T18:07:28.861Z,95687.00
2022-08-27T18:09:56.241Z,95695.00
2022-08-27T18:12:26.497Z,95703.00
2022-08-27T18:15:33.604Z,95705.00
2022-08-27T18:18:05.511Z,95714.00
2022-08-27T18:20:34.766Z,95717.00
2022-08-27T18:23:04.348Z,95711.00
2022-08-27T18:25:38.430Z,95710.00
2022-08-27T18:28:09.277Z,95705.00
2022-08-27T18:30:39.664Z,95723.00
2022-08-27T18:33:09.397Z,95725.00
2022-08-27T18:35:38.140Z,95728.00
2022-08-27T18:38:06.883Z,95733.00
2022-08-27T18:40:45.580Z,95739.00
2022-08-27T18:43:16.036Z,95742.00
2022-08-27T18:46:04.724Z,95744.00
2022-08-27T18:48:33.294Z,95753.00
2022-08-27T18:51:04.099Z,95769.00
2022-08-27T18:53:35.046Z,95767.00
2022-08-27T18:56:04.643Z,95770.00
2022-08-27T18:58:32.073Z,95758.00
2022-08-27T19:01:24.985Z,95773.00
2022-08-27T19:03:55.168Z,95770.00
2022-08-27T19:06:24.143Z,95769.00
2022-08-27T19:08:53.018Z,95777.00
2022-08-27T19:11:20.937Z,95769.00
2022-08-27T19:13:50.765Z,95770.00
2022-08-27T19:16:45.325Z,95779.00
2022-08-27T19:19:18.953Z,95777.00
2022-08-27T19:21:51.193Z,95772.00
2022-08-27T19:24:21.667Z,95767.00
2022-08-27T19:26:57.433Z,95765.00
2022-08-27T19:29:26.000Z,95770.00
2022-08-27T19:31:56.881Z,95774.00
2022-08-27T19:34:27.254Z,95782.00
2022-08-27T19:37:02.396Z,95779.00
2022-08-27T19:39:38.952Z,95775.00
2022-08-27T19:42:22.490Z,95770.00
2022-08-27T19:44:50.632Z,95779.00
2022-08-27T19:47:30.575Z,95775.00
2022-08-27T19:50:37.419Z,95766.00
2022-08-27T19:53:19.498Z,95777.00
2022-08-27T19:55:47.178Z,95771.00
2022-08-27T19:58:17.038Z,95771.00
2022-08-27T20:00:45.725Z,95772.00
2022-08-27T20:03:17.537Z,95779.00
2022-08-27T20:09:15.742Z,95775.00
2022-08-27T20:11:47.507Z,95774.00
2022-08-27T20:14:23.611Z,95779.00
2022-08-27T20:16:55.154Z,95776.00
2022-08-27T20:19:25.926Z,95784.00
2022-08-27T20:22:03.164Z,95770.00
2022-08-27T20:24:33.218Z,95774.00
2022-08-27T20:27:10.741Z,95782.00
2022-08-27T20:29:43.802Z,95775.00
2022-08-27T20:32:24.788Z,95783.00
2022-08-27T20:34:57.746Z,95784.00
2022-08-27T20:37:25.442Z,95789.00
2022-08-27T20:39:55.225Z,95786.00
2022-08-27T20:42:27.593Z,95773.00
2022-08-27T20:44:57.782Z,95781.00
2022-08-27T20:47:28.275Z,95781.00
2022-08-27T20:50:04.163Z,95785.00
2022-08-27T20:52:32.646Z,95778.00
2022-08-27T20:55:07.594Z,95788.00
2022-08-27T20:58:11.862Z,95785.00
2022-08-27T21:01:07.827Z,95780.00
2022-08-27T21:03:38.069Z,95777.00
2022-08-27T21:06:09.260Z,95790.00
2022-08-27T21:08:38.998Z,95777.00
2022-08-27T21:11:16.310Z,95781.00
2022-08-27T21:13:56.174Z,95787.00
2022-08-27T21:16:32.428Z,95784.00
2022-08-27T21:19:02.695Z,95783.00
2022-08-27T21:21:30.231Z,95792.00
2022-08-27T21:24:03.205Z,95787.00
2022-08-27T21:26:30.511Z,95779.00
2022-08-27T21:29:06.360Z,95776.00
2022-08-27T21:34:33.301Z,95780.00
2022-08-27T21:37:09.982Z,95774.00
2022-08-27T21:39:42.209Z,95779.00
2022-08-27T21:42:34.334Z,95774.00
2022-08-27T21:45:10.023Z,95768.00
2022-08-27T21:47:38.231Z,95782.00
2022-08-27T21:50:10.007Z,95786.00
2022-08-27T21:52:38.945Z,95783.00
2022-08-27T21:55:13.100Z,95778.00
2022-08-27T21:57:42.842Z,95783.00
2022-08-27T22:00:43.118Z,95785.00
2022-08-27T22:03:15.052Z,95779.00
2022-08-27T22:05:48.908Z,95783.00
2022-08-27T22:08:19.498Z,95773.00
2022-08-27T22:10:56.773Z,95782.00
2022-08-27T22:13:27.345Z,95786.00
2022-08-27T22:15:57.618Z,95775.00
2022-08-27T22:18:30.710Z,95779.00
2022-08-27T22:21:01.612Z,95775.00
2022-08-27T22:23:29.380Z,95776.00
2022-08-27T22:25:59.977Z,95773.00
2022-08-27T22:28:27.468Z,95783.00
2022-08-27T22:30:54.744Z,95784.00
2022-08-27T22:36:23.683Z,95785.00
2022-08-27T22:38:56.224Z,95794.00
2022-08-27T22:41:51.149Z,95782.00
2022-08-27T22:44:22.796Z,95794.00
2022-08-27T22:46:52.900Z,95780.00
2022-08-27T22:49:26.527Z,95785.00
2022-08-27T22:52:00.481Z,95774.00
2022-08-27T22:54:45.711Z,95778.00
2022-08-27T22:57:44.313Z,95775.00
2022-08-27T23:03:20.401Z,95786.00
2022-08-27T23:05:48.017Z,95788.00
2022-08-27T23:08:17.805Z,95782.00
2022-08-27T23:10:57.893Z,95775.00
2022-08-27T23:13:27.162Z,95784.00
2022-08-27T23:16:06.245Z,95787.00
2022-08-27T23:19:00.750Z,95793.00
2022-08-27T23:22:02.592Z,95788.00
2022-08-27T23:24:55.998Z,95774.00
2022-08-27T23:28:01.965Z,95776.00
2022-08-27T23:30:40.865Z,95773.00
2022-08-27T23:33:24.548Z,95785.00
2022-08-27T23:35:56.107Z,95794.00
2022-08-27T23:38:25.050Z,95784.00
2022-08-27T23:44:05.577Z,95792.00
2022-08-27T23:46:33.420Z,95785.00
2022-08-27T23:49:01.886Z,95795.00
2022-08-27T23:51:34.891Z,95790.00
2022-08-27T23:54:09.039Z,95784.00
2022-08-27T23:56:37.494Z,95793.00
2022-08-27T23:59:05.952Z,95781.00
